Time;durP1;ratioP1;P1;durP2;ratioP2;P2;SDS_P1;SDS_P2;PMS_P1;PMS_P2;Temp;Humidity;BMP_temperature;BMP_pressure;BME280_temperature;BME280_humidity;BME280_pressure;Samples;Min_cycle;Max_cycle;Signal;HPM_P1;HPM_P2
2023/04/27 00:02:12;;;;;;;1.63;1.50;;;7.50;99.90;;;;;;5092941;28;20605;-69
2023/04/27 00:04:39;;;;;;;2.63;1.37;;;7.40;99.90;;;;;;5108761;28;20237;-69
2023/04/27 00:07:06;;;;;;;2.27;1.20;;;7.40;99.90;;;;;;5108556;28;20244;-69
2023/04/27 00:09:34;;;;;;;3.10;1.60;;;7.40;99.90;;;;;;5108368;28;20242;-69
2023/04/27 00:12:01;;;;;;;2.97;1.50;;;7.40;99.90;;;;;;5107710;28;20229;-69
2023/04/27 00:14:28;;;;;;;2.80;1.50;;;7.40;99.90;;;;;;5108673;28;20325;-69
2023/04/27 00:16:55;;;;;;;3.27;1.50;;;7.40;99.90;;;;;;5108297;28;20206;-69
2023/04/27 00:19:22;;;;;;;1.97;1.20;;;7.40;99.90;;;;;;5107989;28;20664;-69
2023/04/27 00:21:49;;;;;;;3.70;2.00;;;7.40;99.90;;;;;;5108180;28;20210;-69
2023/04/27 00:24:16;;;;;;;2.90;1.73;;;7.40;99.90;;;;;;5093536;28;20230;-69
2023/04/27 00:26:44;;;;;;;4.40;1.60;;;7.40;99.90;;;;;;5090175;28;20297;-69
2023/04/27 00:29:11;;;;;;;3.63;1.50;;;7.50;99.90;;;;;;5107913;28;20296;-69
2023/04/27 00:31:38;;;;;;;1.50;1.40;;;7.50;99.90;;;;;;5107486;28;20198;-69
2023/04/27 00:34:05;;;;;;;1.57;1.30;;;7.60;99.90;;;;;;5107840;28;20234;-69
2023/04/27 00:36:33;;;;;;;1.93;1.40;;;7.60;99.90;;;;;;5108492;28;20250;-69
2023/04/27 00:39:00;;;;;;;2.57;1.47;;;7.60;99.90;;;;;;5108131;28;20206;-69
2023/04/27 00:41:27;;;;;;;4.20;1.40;;;7.60;99.90;;;;;;5106906;28;20210;-69
2023/04/27 00:43:55;;;;;;;3.80;2.07;;;7.50;99.90;;;;;;5107785;28;20690;-69
2023/04/27 00:46:22;;;;;;;5.57;1.50;;;7.50;99.90;;;;;;5106570;28;20300;-69
2023/04/27 00:48:49;;;;;;;3.23;1.50;;;7.60;99.90;;;;;;5107635;28;20360;-69
2023/04/27 00:51:16;;;;;;;2.93;1.67;;;7.50;99.90;;;;;;5107556;28;20267;-70
2023/04/27 00:53:43;;;;;;;3.03;1.43;;;7.50;99.90;;;;;;5102158;28;20329;-69
2023/04/27 00:56:12;;;;;;;4.20;1.50;;;7.50;99.90;;;;;;5104203;28;20305;-70
2023/04/27 00:58:39;;;;;;;1.60;1.40;;;7.50;99.90;;;;;;5089103;27;20744;-69
2023/04/27 01:01:07;;;;;;;3.80;1.40;;;7.40;99.90;;;;;;5107678;28;20289;-70
2023/04/27 01:03:34;;;;;;;1.60;1.50;;;7.40;99.90;;;;;;5106893;28;20206;-69
2023/04/27 01:06:01;;;;;;;2.10;1.40;;;7.40;99.90;;;;;;5103998;28;20255;-69
2023/04/27 01:08:28;;;;;;;2.93;1.43;;;7.40;99.90;;;;;;5087136;28;20302;-69
2023/04/27 01:10:55;;;;;;;2.50;1.90;;;7.40;99.90;;;;;;5086736;28;20237;-69
2023/04/27 01:13:22;;;;;;;3.47;1.20;;;7.30;99.90;;;;;;5087055;28;20241;-69
2023/04/27 01:15:49;;;;;;;1.63;1.53;;;7.30;99.90;;;;;;5087372;28;20297;-69
2023/04/27 01:18:18;;;;;;;4.57;1.90;;;7.30;99.90;;;;;;5086828;28;20202;-69
2023/04/27 01:20:45;;;;;;;2.23;1.90;;;7.30;99.90;;;;;;5086941;28;20211;-69
2023/04/27 01:23:15;;;;;;;2.07;1.57;;;7.30;99.90;;;;;;5088997;28;20203;-69
2023/04/27 01:25:42;;;;;;;3.10;1.77;;;7.30;99.90;;;;;;5095201;28;20282;-69
2023/04/27 01:28:08;;;;;;;3.50;1.47;;;7.30;99.90;;;;;;5086666;28;20297;-69
2023/04/27 01:30:35;;;;;;;2.60;1.70;;;7.20;99.90;;;;;;5104774;28;20292;-69
2023/04/27 01:33:02;;;;;;;4.40;1.77;;;7.20;99.90;;;;;;5106842;28;20210;-69
2023/04/27 01:35:30;;;;;;;2.27;1.73;;;7.20;99.90;;;;;;5106927;28;21072;-69
2023/04/27 01:37:57;;;;;;;2.83;1.80;;;7.20;99.90;;;;;;5107172;28;20210;-68
2023/04/27 01:40:25;;;;;;;4.23;1.50;;;7.20;99.90;;;;;;5107072;28;20285;-69
2023/04/27 01:42:52;;;;;;;3.83;1.90;;;7.20;99.90;;;;;;5106551;28;20509;-68
2023/04/27 01:45:19;;;;;;;3.37;1.90;;;7.20;99.90;;;;;;5106591;28;20300;-70
2023/04/27 01:47:46;;;;;;;3.73;2.00;;;7.20;99.90;;;;;;5098384;27;20245;-70
2023/04/27 01:50:13;;;;;;;3.13;1.60;;;7.20;99.90;;;;;;5085838;28;20225;-70
2023/04/27 01:52:40;;;;;;;2.00;1.80;;;7.30;99.90;;;;;;5086611;28;20723;-70
2023/04/27 01:55:08;;;;;;;3.47;2.00;;;7.30;99.90;;;;;;5086239;28;20325;-70
2023/04/27 01:57:36;;;;;;;3.00;1.87;;;7.30;99.90;;;;;;5087104;28;21036;-70
2023/04/27 02:00:04;;;;;;;2.23;1.80;;;7.30;99.90;;;;;;5088539;27;20297;-70
2023/04/27 02:02:31;;;;;;;3.13;1.77;;;7.30;99.90;;;;;;5086432;28;20652;-70
2023/04/27 02:04:57;;;;;;;3.17;1.93;;;7.20;99.90;;;;;;5086034;28;20241;-70
2023/04/27 02:07:25;;;;;;;3.93;1.60;;;7.20;99.90;;;;;;5086489;28;20770;-70
2023/04/27 02:09:51;;;;;;;4.30;1.90;;;7.10;99.90;;;;;;5086392;28;20203;-70
2023/04/27 02:12:18;;;;;;;2.03;1.53;;;7.10;99.90;;;;;;5085833;28;20238;-70
2023/04/27 02:14:47;;;;;;;7.17;2.50;;;7.00;99.90;;;;;;5085956;28;20328;-70
2023/04/27 02:17:13;;;;;;;4.60;1.90;;;7.00;99.90;;;;;;5091155;28;20198;-70
2023/04/27 02:19:40;;;;;;;3.10;1.70;;;7.10;99.90;;;;;;5094869;27;20207;-69
2023/04/27 02:22:07;;;;;;;1.90;1.80;;;7.00;99.90;;;;;;5096684;28;20300;-69
2023/04/27 02:24:35;;;;;;;2.80;1.83;;;7.00;99.90;;;;;;5100778;28;20289;-70
2023/04/27 02:27:02;;;;;;;2.33;1.73;;;7.00;99.90;;;;;;5097107;28;20205;-70
2023/04/27 02:29:32;;;;;;;2.53;1.70;;;7.00;99.90;;;;;;5092936;28;20299;-70
2023/04/27 02:32:00;;;;;;;3.57;1.80;;;7.00;99.90;;;;;;5099491;28;20307;-70
2023/04/27 02:34:27;;;;;;;3.23;2.00;;;7.00;99.90;;;;;;5104574;28;20317;-70
2023/04/27 02:36:54;;;;;;;3.20;1.60;;;7.00;99.90;;;;;;5101374;28;20263;-70
2023/04/27 02:39:21;;;;;;;2.47;1.83;;;6.90;99.90;;;;;;5104592;28;20286;-70
2023/04/27 02:41:48;;;;;;;2.00;1.70;;;6.90;99.90;;;;;;5093369;28;20277;-70
2023/04/27 02:44:15;;;;;;;1.80;1.70;;;7.00;99.90;;;;;;5098098;27;20203;-69
2023/04/27 02:46:41;;;;;;;3.43;2.00;;;6.90;99.90;;;;;;5085495;28;21003;-69
2023/04/27 02:49:10;;;;;;;5.03;1.73;;;7.00;99.90;;;;;;5103693;28;20257;-69
2023/04/27 02:51:37;;;;;;;2.10;2.00;;;7.00;99.90;;;;;;5101239;28;20282;-70
2023/04/27 02:54:04;;;;;;;4.07;2.03;;;7.00;99.90;;;;;;5103608;28;20313;-70
2023/04/27 02:56:31;;;;;;;3.90;1.77;;;7.00;99.90;;;;;;5104251;28;20573;-69
2023/04/27 02:58:58;;;;;;;2.43;1.90;;;7.00;99.90;;;;;;5101247;28;20675;-71
2023/04/27 03:01:25;;;;;;;3.77;1.60;;;7.00;99.90;;;;;;5095751;28;20213;-71
2023/04/27 03:03:51;;;;;;;4.60;1.80;;;7.00;99.90;;;;;;5096427;28;20223;-71
2023/04/27 03:06:20;;;;;;;2.47;1.70;;;7.00;99.90;;;;;;5098703;28;20273;-70
2023/04/27 03:08:47;;;;;;;2.73;1.60;;;7.00;99.90;;;;;;5105320;28;20423;-70
2023/04/27 03:11:14;;;;;;;3.60;1.97;;;7.00;99.90;;;;;;5107096;28;20296;-70
2023/04/27 03:13:41;;;;;;;3.27;1.80;;;7.00;99.90;;;;;;5108747;27;20284;-71
2023/04/27 03:16:10;;;;;;;5.70;2.00;;;7.00;99.90;;;;;;5104139;28;20222;-71
2023/04/27 03:18:37;;;;;;;3.67;1.97;;;6.90;99.90;;;;;;5089533;28;20229;-70
2023/04/27 03:21:08;;;;;;;4.40;1.83;;;6.90;99.90;;;;;;5089140;28;20237;-70
2023/04/27 03:23:36;;;;;;;1.67;1.53;;;6.90;99.90;;;;;;5097813;28;20313;-70
2023/04/27 03:26:07;;;;;;;3.07;1.50;;;6.90;99.90;;;;;;5089685;28;20242;-70
2023/04/27 03:28:34;;;;;;;2.47;1.60;;;7.00;99.90;;;;;;5104865;28;20286;-70
2023/04/27 03:31:04;;;;;;;4.67;1.83;;;7.00;99.90;;;;;;5109784;28;20198;-71
2023/04/27 03:33:31;;;;;;;2.97;1.90;;;7.00;99.90;;;;;;5109792;28;20553;-70
2023/04/27 03:35:58;;;;;;;2.60;1.67;;;7.00;99.90;;;;;;5109717;28;20345;-71
2023/04/27 03:38:26;;;;;;;2.47;1.90;;;7.00;99.90;;;;;;5109937;28;20209;-71
2023/04/27 03:40:54;;;;;;;2.43;1.70;;;7.00;99.90;;;;;;5109310;28;20206;-71
2023/04/27 03:43:22;;;;;;;3.83;1.97;;;6.90;99.90;;;;;;5109425;27;20702;-71
2023/04/27 03:45:48;;;;;;;2.60;1.70;;;6.90;99.90;;;;;;5109745;28;20244;-70
2023/04/27 03:48:16;;;;;;;2.40;1.70;;;6.90;99.90;;;;;;5109200;28;20261;-69
2023/04/27 03:50:43;;;;;;;3.60;1.93;;;6.90;99.90;;;;;;5109024;28;20217;-69
2023/04/27 03:53:10;;;;;;;3.63;1.80;;;6.90;99.90;;;;;;5108988;28;20301;-68
2023/04/27 03:55:38;;;;;;;2.40;1.60;;;6.90;99.90;;;;;;5108570;28;20230;-69
2023/04/27 03:58:07;;;;;;;4.90;2.13;;;6.90;99.90;;;;;;5109288;28;20206;-69
2023/04/27 04:00:34;;;;;;;2.30;1.87;;;6.90;99.90;;;;;;5091747;28;20272;-69
2023/04/27 04:03:01;;;;;;;2.73;2.30;;;6.90;99.90;;;;;;5088732;28;20282;-70
2023/04/27 04:05:29;;;;;;;4.50;1.93;;;6.80;99.90;;;;;;5088648;28;20241;-70
2023/04/27 04:07:56;;;;;;;3.20;1.93;;;6.80;99.90;;;;;;5088746;28;20234;-69
2023/04/27 04:10:23;;;;;;;4.77;1.80;;;6.90;99.90;;;;;;5088020;28;20726;-70
2023/04/27 04:12:50;;;;;;;5.17;1.73;;;6.90;99.90;;;;;;5087908;28;20233;-69
2023/04/27 04:15:19;;;;;;;2.23;1.77;;;6.90;99.90;;;;;;5087798;28;20751;-70
2023/04/27 04:17:48;;;;;;;3.20;2.20;;;6.90;99.90;;;;;;5088543;28;20583;-70
2023/04/27 04:20:15;;;;;;;3.73;1.90;;;6.90;99.90;;;;;;5096559;27;20206;-69
2023/04/27 04:22:42;;;;;;;2.23;1.83;;;6.90;99.90;;;;;;5102921;28;20211;-70
2023/04/27 04:25:09;;;;;;;8.17;2.43;;;6.80;99.90;;;;;;5087971;28;20217;-69
2023/04/27 04:27:36;;;;;;;5.60;2.00;;;6.80;99.90;;;;;;5094781;27;20317;-69
2023/04/27 04:30:05;;;;;;;2.30;1.77;;;6.80;99.90;;;;;;5095059;28;20257;-70
2023/04/27 04:32:36;;;;;;;6.87;2.33;;;6.70;99.90;;;;;;5088128;28;20211;-69
2023/04/27 04:35:04;;;;;;;7.30;2.40;;;6.80;99.90;;;;;;5094492;28;20240;-69
2023/04/27 04:37:33;;;;;;;4.60;2.37;;;6.70;99.90;;;;;;5108599;28;20317;-69
2023/04/27 04:40:00;;;;;;;3.73;1.83;;;6.70;99.90;;;;;;5107608;27;20709;-70
2023/04/27 04:42:27;;;;;;;3.10;2.10;;;6.70;99.90;;;;;;5108467;27;20297;-70
2023/04/27 04:44:54;;;;;;;2.80;2.13;;;6.70;99.90;;;;;;5108498;28;20322;-69
2023/04/27 04:47:21;;;;;;;4.13;2.13;;;6.70;99.90;;;;;;5108286;28;20206;-70
2023/04/27 04:49:50;;;;;;;2.30;2.10;;;6.80;99.90;;;;;;5108141;28;20226;-70
2023/04/27 04:52:17;;;;;;;6.53;2.10;;;6.80;99.90;;;;;;5108280;28;20212;-69
2023/04/27 04:54:43;;;;;;;5.07;2.10;;;6.90;99.90;;;;;;5108068;28;20340;-69
2023/04/27 04:57:10;;;;;;;3.97;2.67;;;6.90;99.90;;;;;;5100237;28;20234;-70
2023/04/27 04:59:37;;;;;;;6.97;2.90;;;6.90;99.90;;;;;;5097305;27;20304;-69
2023/04/27 05:02:04;;;;;;;4.83;2.17;;;7.00;99.90;;;;;;5107944;28;20202;-70
2023/04/27 05:04:31;;;;;;;2.27;1.73;;;6.90;99.90;;;;;;5107722;28;20210;-70
2023/04/27 05:07:00;;;;;;;2.50;2.00;;;7.00;99.90;;;;;;5096191;28;20293;-70
2023/04/27 05:09:27;;;;;;;2.53;1.63;;;6.90;99.90;;;;;;5089768;28;20239;-70
2023/04/27 05:11:53;;;;;;;5.73;2.43;;;7.00;99.90;;;;;;5086874;28;20237;-69
2023/04/27 05:14:20;;;;;;;3.57;1.90;;;7.00;99.90;;;;;;5087156;28;20226;-70
2023/04/27 05:16:48;;;;;;;5.13;2.00;;;7.00;99.90;;;;;;5098124;27;20242;-70
2023/04/27 05:19:17;;;;;;;9.50;2.17;;;7.10;99.90;;;;;;5106751;28;20691;-70
2023/04/27 05:21:44;;;;;;;2.53;1.90;;;7.10;99.90;;;;;;5107662;28;20233;-70
2023/04/27 05:24:13;;;;;;;4.23;1.73;;;7.20;99.90;;;;;;5097484;28;20268;-69
2023/04/27 05:26:42;;;;;;;3.33;1.60;;;7.20;99.90;;;;;;5086735;28;20260;-70
2023/04/27 05:29:09;;;;;;;6.73;2.07;;;7.20;99.90;;;;;;5092284;28;20742;-70
2023/04/27 05:31:36;;;;;;;3.77;2.10;;;7.10;99.90;;;;;;5107319;28;20220;-70
2023/04/27 05:34:02;;;;;;;3.40;1.97;;;7.00;99.90;;;;;;5106259;28;20202;-70
2023/04/27 05:36:30;;;;;;;3.50;1.90;;;7.00;99.90;;;;;;5107186;28;20229;-70
2023/04/27 05:38:56;;;;;;;2.10;1.70;;;6.90;99.90;;;;;;5107114;28;20679;-70
2023/04/27 05:41:25;;;;;;;4.03;2.23;;;6.90;99.90;;;;;;5107258;28;20285;-69
2023/04/27 05:43:52;;;;;;;3.00;2.10;;;6.90;99.90;;;;;;5107233;28;20247;-69
2023/04/27 05:46:19;;;;;;;2.80;1.90;;;6.80;99.90;;;;;;5106832;28;20921;-69
2023/04/27 05:48:46;;;;;;;2.07;1.87;;;6.80;99.90;;;;;;5106614;28;20230;-69
2023/04/27 05:51:13;;;;;;;3.23;2.30;;;6.80;99.90;;;;;;5107053;28;20302;-69
2023/04/27 05:53:42;;;;;;;4.77;2.07;;;6.70;99.90;;;;;;5106734;28;20301;-69
2023/04/27 05:56:10;;;;;;;4.17;2.43;;;6.80;99.90;;;;;;5106449;28;20423;-69
2023/04/27 05:58:38;;;;;;;5.17;2.30;;;6.80;99.90;;;;;;5105549;28;20209;-70
2023/04/27 06:01:06;;;;;;;5.30;2.10;;;6.90;99.90;;;;;;5086424;28;20301;-70
2023/04/27 06:03:33;;;;;;;5.10;2.03;;;6.90;99.90;;;;;;5086098;28;20223;-70
2023/04/27 06:06:01;;;;;;;6.00;2.47;;;6.90;99.90;;;;;;5103274;28;20332;-71
2023/04/27 06:08:29;;;;;;;3.83;1.93;;;6.90;99.90;;;;;;5106695;28;20310;-71
2023/04/27 06:10:56;;;;;;;3.80;2.47;;;6.90;99.90;;;;;;5105960;28;20247;-70
2023/04/27 06:13:23;;;;;;;2.27;2.10;;;6.80;99.90;;;;;;5093053;28;20233;-69
2023/04/27 06:15:51;;;;;;;4.60;2.10;;;6.90;99.90;;;;;;5086039;28;20325;-69
2023/04/27 06:18:18;;;;;;;4.37;1.90;;;6.80;99.90;;;;;;5085652;28;20665;-69
2023/04/27 06:20:45;;;;;;;4.90;2.30;;;6.90;99.90;;;;;;5098350;28;20251;-70
2023/04/27 06:23:12;;;;;;;2.93;2.00;;;6.90;99.90;;;;;;5105834;28;20615;-69
2023/04/27 06:25:39;;;;;;;6.07;2.13;;;6.90;99.90;;;;;;5105646;28;20206;-70
2023/04/27 06:28:06;;;;;;;2.60;1.90;;;6.90;99.90;;;;;;5094458;28;20206;-70
2023/04/27 06:30:33;;;;;;;4.00;2.30;;;6.90;99.90;;;;;;5103327;28;20209;-69
2023/04/27 06:33:02;;;;;;;5.20;2.00;;;6.90;99.90;;;;;;5106235;28;20576;-70
2023/04/27 06:35:28;;;;;;;3.57;2.07;;;6.90;99.90;;;;;;5106386;28;20232;-69
2023/04/27 06:37:57;;;;;;;4.20;1.90;;;6.90;99.90;;;;;;5106383;28;20212;-70
2023/04/27 06:40:25;;;;;;;6.67;2.23;;;7.00;99.90;;;;;;5105803;28;20207;-69
2023/04/27 06:42:52;;;;;;;4.17;2.20;;;7.00;99.90;;;;;;5106072;28;20225;-70
2023/04/27 06:45:19;;;;;;;3.40;2.00;;;7.00;99.90;;;;;;5105027;28;20626;-70
2023/04/27 06:47:46;;;;;;;3.83;2.20;;;7.00;99.90;;;;;;5105833;28;20860;-70
2023/04/27 06:50:15;;;;;;;4.10;2.00;;;7.00;99.90;;;;;;5105688;28;20224;-70
2023/04/27 06:52:42;;;;;;;2.13;1.80;;;7.00;99.90;;;;;;5105701;28;20210;-70
2023/04/27 06:55:09;;;;;;;2.83;1.97;;;7.10;99.90;;;;;;5105604;28;20320;-70
2023/04/27 06:57:36;;;;;;;2.83;2.00;;;7.30;99.90;;;;;;5105258;28;20616;-70
2023/04/27 07:00:04;;;;;;;4.40;2.10;;;7.30;99.90;;;;;;5105579;28;20212;-70
2023/04/27 07:02:31;;;;;;;3.73;1.90;;;7.40;99.90;;;;;;5105657;28;20561;-71
2023/04/27 07:04:58;;;;;;;3.53;2.23;;;7.50;99.90;;;;;;5105301;28;20241;-70
2023/04/27 07:07:26;;;;;;;4.07;1.90;;;7.60;99.90;;;;;;5105852;28;20212;-70
2023/04/27 07:09:53;;;;;;;2.00;1.80;;;7.50;99.90;;;;;;5105833;28;20206;-70
2023/04/27 07:12:20;;;;;;;1.93;1.73;;;7.60;99.90;;;;;;5105599;28;20336;-70
2023/04/27 07:14:49;;;;;;;3.37;1.70;;;7.70;99.90;;;;;;5105673;28;20305;-70
2023/04/27 07:17:16;;;;;;;3.20;1.70;;;7.60;99.90;;;;;;5119960;27;21072;-70
2023/04/27 07:19:43;;;;;;;4.93;1.80;;;7.60;99.90;;;;;;5126096;27;20201;-70
2023/04/27 07:22:10;;;;;;;4.87;1.73;;;7.70;99.90;;;;;;5124707;27;20209;-70
2023/04/27 07:24:38;;;;;;;2.97;1.90;;;7.70;99.90;;;;;;5105435;28;20230;-70
2023/04/27 07:27:05;;;;;;;4.23;1.63;;;7.70;99.90;;;;;;5105564;28;21314;-70
2023/04/27 07:29:32;;;;;;;4.57;1.90;;;7.80;99.90;;;;;;5096936;28;20301;-70
2023/04/27 07:31:59;;;;;;;2.67;1.77;;;7.90;99.90;;;;;;5084487;28;20665;-70
2023/04/27 07:34:26;;;;;;;2.50;1.70;;;7.90;99.90;;;;;;5084994;28;20210;-70
2023/04/27 07:36:54;;;;;;;4.00;2.20;;;7.90;99.90;;;;;;5103236;28;20321;-70
2023/04/27 07:39:20;;;;;;;4.53;1.87;;;7.80;99.90;;;;;;5105006;28;20715;-70
2023/04/27 07:41:49;;;;;;;2.30;2.00;;;7.90;99.90;;;;;;5104969;28;20213;-70
2023/04/27 07:44:18;;;;;;;3.37;2.07;;;8.00;99.90;;;;;;5104868;28;20767;-70
2023/04/27 07:46:46;;;;;;;4.97;2.20;;;8.00;99.90;;;;;;5105224;28;20210;-70
2023/04/27 07:49:13;;;;;;;4.27;2.07;;;7.90;99.90;;;;;;5104936;28;20317;-71
2023/04/27 07:51:40;;;;;;;4.47;2.20;;;7.90;99.90;;;;;;5105164;27;20253;-70
2023/04/27 07:54:07;;;;;;;5.70;2.23;;;7.90;99.90;;;;;;5104842;28;20220;-70
2023/04/27 07:56:34;;;;;;;4.43;2.30;;;8.10;99.90;;;;;;5107634;27;20240;-70
2023/04/27 07:59:02;;;;;;;3.13;2.33;;;8.20;99.90;;;;;;5099902;27;20237;-70
2023/04/27 08:01:29;;;;;;;10.50;2.40;;;8.30;99.90;;;;;;5129580;27;20300;-70
2023/04/27 08:03:56;;;;;;;2.13;1.93;;;8.40;99.90;;;;;;5129113;27;20205;-71
2023/04/27 08:06:23;;;;;;;3.50;2.63;;;8.40;99.90;;;;;;5111050;27;20300;-70
2023/04/27 08:08:50;;;;;;;2.43;2.20;;;8.30;99.90;;;;;;5108697;28;20361;-70
2023/04/27 08:11:17;;;;;;;2.50;2.30;;;8.40;99.90;;;;;;5108325;28;20605;-71
2023/04/27 08:13:43;;;;;;;2.97;2.17;;;8.30;99.90;;;;;;5108457;28;20263;-70
2023/04/27 08:16:12;;;;;;;3.20;2.20;;;8.30;99.90;;;;;;5108192;28;20911;-70
2023/04/27 08:18:39;;;;;;;2.50;2.30;;;8.20;99.90;;;;;;5108175;28;20304;-70
2023/04/27 08:21:05;;;;;;;7.17;2.20;;;8.20;99.90;;;;;;5092557;28;20297;-70
2023/04/27 08:23:35;;;;;;;2.20;1.90;;;8.20;99.90;;;;;;5100804;28;20288;-70
2023/04/27 08:26:04;;;;;;;2.30;2.00;;;8.30;99.90;;;;;;5108641;28;20213;-70
2023/04/27 08:28:31;;;;;;;4.03;1.90;;;8.40;99.90;;;;;;5108654;27;20216;-70
2023/04/27 08:30:58;;;;;;;2.43;1.50;;;8.50;99.90;;;;;;5128724;27;20210;-70
2023/04/27 08:33:26;;;;;;;3.47;2.00;;;8.50;99.90;;;;;;5128922;27;20236;-70
2023/04/27 08:35:54;;;;;;;2.50;1.63;;;8.30;99.90;;;;;;5128611;27;20222;-70
2023/04/27 08:38:21;;;;;;;4.93;2.00;;;8.30;99.90;;;;;;5128702;27;20205;-70
2023/04/27 08:40:51;;;;;;;2.43;1.70;;;8.20;99.90;;;;;;5128407;27;20202;-70
2023/04/27 08:43:18;;;;;;;5.27;1.87;;;8.10;99.90;;;;;;5128157;27;20209;-70
2023/04/27 08:45:49;;;;;;;4.50;1.70;;;8.10;99.90;;;;;;5128749;27;20216;-70
2023/04/27 08:48:16;;;;;;;2.47;1.90;;;8.20;99.90;;;;;;5128007;27;20225;-70
2023/04/27 08:50:45;;;;;;;3.20;1.80;;;8.30;99.90;;;;;;5128246;27;20292;-70
2023/04/27 08:53:18;;;;;;;4.20;1.80;;;8.60;99.90;;;;;;5123798;27;20614;-70
2023/04/27 08:55:45;;;;;;;3.07;1.80;;;8.60;99.90;;;;;;5107706;28;20233;-70
2023/04/27 08:58:12;;;;;;;1.70;1.60;;;8.60;99.90;;;;;;5091461;28;20305;-70
2023/04/27 09:00:41;;;;;;;2.83;1.70;;;8.60;99.90;;;;;;5104394;28;20206;-70
2023/04/27 09:03:09;;;;;;;2.93;1.80;;;8.60;99.90;;;;;;5087117;28;20686;-70
2023/04/27 09:05:36;;;;;;;4.00;1.70;;;8.50;99.90;;;;;;5086733;28;20801;-70
2023/04/27 09:08:07;;;;;;;2.27;1.80;;;8.40;99.90;;;;;;5085937;28;20837;-70
2023/04/27 09:10:44;;;;;;;2.60;1.63;;;8.40;99.90;;;;;;5087445;28;20196;-70
2023/04/27 09:13:11;;;;;;;2.40;1.53;;;8.40;99.90;;;;;;5087382;28;20194;-70
2023/04/27 09:15:43;;;;;;;4.07;1.77;;;8.40;99.90;;;;;;5088306;27;20213;-70
2023/04/27 09:18:16;;;;;;;2.40;1.73;;;8.40;99.90;;;;;;5107233;28;20205;-70
2023/04/27 09:20:44;;;;;;;2.57;1.37;;;8.50;99.90;;;;;;5107599;28;20187;-70
2023/04/27 09:23:25;;;;;;;2.13;1.67;;;8.60;99.90;;;;;;5107209;28;20316;-70
2023/04/27 09:25:52;;;;;;;2.00;1.53;;;8.60;99.90;;;;;;5107275;28;20618;-70
2023/04/27 09:28:19;;;;;;;2.93;1.80;;;8.70;99.90;;;;;;5106811;28;20881;-70
2023/04/27 09:30:52;;;;;;;1.60;1.50;;;8.80;99.90;;;;;;5126512;27;20678;-70
2023/04/27 09:33:24;;;;;;;3.43;1.57;;;8.90;99.90;;;;;;5127392;27;20618;-70
2023/04/27 09:35:51;;;;;;;1.70;1.50;;;8.90;99.90;;;;;;5127440;27;20207;-70
2023/04/27 09:38:20;;;;;;;2.70;1.50;;;8.90;99.90;;;;;;5127364;27;20216;-71
2023/04/27 09:40:48;;;;;;;4.27;1.77;;;8.90;99.90;;;;;;5127471;27;20206;-70
2023/04/27 09:43:15;;;;;;;1.27;1.20;;;9.00;99.90;;;;;;5127033;27;20298;-70
2023/04/27 09:45:42;;;;;;;2.30;1.20;;;9.00;99.90;;;;;;5127373;27;20882;-70
2023/04/27 09:48:09;;;;;;;1.23;1.13;;;9.20;99.90;;;;;;5126979;27;20320;-70
2023/04/27 09:50:37;;;;;;;1.10;0.97;;;9.20;99.90;;;;;;5101407;27;20213;-70
2023/04/27 09:53:07;;;;;;;1.47;1.10;;;9.20;99.90;;;;;;5086547;28;20310;-70
2023/04/27 09:55:40;;;;;;;2.30;1.37;;;9.10;99.90;;;;;;5086307;28;20294;-70
2023/04/27 09:58:32;;;;;;;2.03;1.33;;;9.10;99.90;;;;;;5097024;28;20599;-70
2023/04/27 10:01:08;;;;;;;3.87;1.53;;;9.10;99.90;;;;;;5086150;28;20669;-70
2023/04/27 10:03:47;;;;;;;2.50;1.30;;;9.10;99.90;;;;;;5086428;28;20187;-70
2023/04/27 10:06:50;;;;;;;2.27;1.40;;;9.10;99.90;;;;;;5086006;28;20214;-70
2023/04/27 10:09:22;;;;;;;1.87;1.23;;;9.10;99.90;;;;;;5086094;28;20233;-70
2023/04/27 10:11:52;;;;;;;5.97;1.77;;;9.00;99.90;;;;;;5086089;28;20300;-70
2023/04/27 10:14:20;;;;;;;1.80;1.70;;;9.10;99.90;;;;;;5106057;28;20281;-70
2023/04/27 10:16:53;;;;;;;2.37;1.40;;;9.20;99.90;;;;;;5106180;28;20818;-70
2023/04/27 10:19:20;;;;;;;4.57;1.60;;;9.30;99.90;;;;;;5106076;28;20217;-70
2023/04/27 10:21:59;;;;;;;2.13;1.40;;;9.50;99.90;;;;;;5106381;28;20214;-70
2023/04/27 10:24:36;;;;;;;1.57;1.20;;;9.70;99.90;;;;;;5106245;28;20221;-70
2023/04/27 10:27:06;;;;;;;2.83;1.60;;;9.80;99.90;;;;;;5105801;28;20193;-70
2023/04/27 10:29:38;;;;;;;6.27;1.40;;;10.00;99.90;;;;;;5106009;28;20194;-70
2023/04/27 10:32:09;;;;;;;1.53;1.43;;;10.20;99.90;;;;;;5105632;28;20657;-70
2023/04/27 10:34:37;;;;;;;1.40;1.30;;;10.40;99.90;;;;;;5105788;28;20306;-70
2023/04/27 10:37:09;;;;;;;1.83;1.27;;;10.50;99.50;;;;;;5105697;28;20341;-70
2023/04/27 10:39:38;;;;;;;1.80;1.20;;;10.60;99.90;;;;;;5105911;28;20201;-70
2023/04/27 10:42:07;;;;;;;2.80;1.10;;;10.40;99.90;;;;;;5105998;28;20588;-69
2023/04/27 10:44:35;;;;;;;1.53;1.43;;;10.50;99.90;;;;;;5105959;28;20229;-70
2023/04/27 10:47:13;;;;;;;1.13;1.03;;;10.60;99.90;;;;;;5092853;28;20266;-70
2023/04/27 10:49:40;;;;;;;1.53;1.07;;;10.80;99.90;;;;;;5085082;28;20660;-70
2023/04/27 10:52:07;;;;;;;3.67;1.23;;;10.90;97.60;;;;;;5085167;28;20238;-70
2023/04/27 10:54:34;;;;;;;1.37;1.27;;;10.80;97.80;;;;;;5085401;28;20313;-70
2023/04/27 10:57:07;;;;;;;2.67;0.90;;;10.70;97.40;;;;;;5085056;28;20234;-70
2023/04/27 10:59:46;;;;;;;3.17;1.20;;;10.70;97.00;;;;;;5094787;28;20249;-70
2023/04/27 11:02:13;;;;;;;1.90;0.90;;;10.80;96.30;;;;;;5105514;28;20285;-70
2023/04/27 11:04:41;;;;;;;2.27;1.07;;;10.70;95.50;;;;;;5105677;28;20296;-70
2023/04/27 11:07:08;;;;;;;1.27;0.90;;;10.80;96.80;;;;;;5105793;28;20210;-70
2023/04/27 11:09:36;;;;;;;2.43;1.00;;;10.90;96.90;;;;;;5105283;28;20205;-70
2023/04/27 11:12:07;;;;;;;2.30;1.63;;;10.80;97.00;;;;;;5105357;28;20230;-70
2023/04/27 11:14:35;;;;;;;5.20;1.73;;;10.70;98.20;;;;;;5105180;28;20243;-70
2023/04/27 11:17:03;;;;;;;3.37;1.50;;;10.70;98.80;;;;;;5105214;28;20234;-70
2023/04/27 11:19:31;;;;;;;2.57;1.57;;;10.80;99.20;;;;;;5104935;28;20664;-70
2023/04/27 11:22:03;;;;;;;1.53;1.43;;;10.80;99.50;;;;;;5105178;28;20309;-70
2023/04/27 11:24:30;;;;;;;1.90;1.40;;;10.60;99.30;;;;;;5105514;28;20201;-70
2023/04/27 11:26:57;;;;;;;2.03;1.63;;;10.40;99.60;;;;;;5105464;28;20292;-70
2023/04/27 11:29:25;;;;;;;5.73;1.70;;;10.50;99.60;;;;;;5113317;28;20312;-70
2023/04/27 11:31:52;;;;;;;2.90;1.60;;;10.50;99.40;;;;;;5128157;27;20310;-69
2023/04/27 11:34:21;;;;;;;1.30;1.20;;;10.60;99.20;;;;;;5130317;27;20215;-70
2023/04/27 11:36:58;;;;;;;0.83;0.83;;;10.70;99.20;;;;;;5129940;27;20663;-70
2023/04/27 11:39:27;;;;;;;1.40;1.17;;;10.90;98.40;;;;;;5130116;27;20205;-70
2023/04/27 11:41:54;;;;;;;1.07;0.90;;;11.10;97.40;;;;;;5124289;27;20675;-70
2023/04/27 11:44:27;;;;;;;1.60;1.10;;;11.30;97.30;;;;;;5088686;28;20720;-70
2023/04/27 11:46:54;;;;;;;3.67;1.00;;;11.40;96.60;;;;;;5089140;28;20262;-70
2023/04/27 11:49:21;;;;;;;1.17;1.17;;;11.30;97.40;;;;;;5089909;27;20256;-70
2023/04/27 11:51:48;;;;;;;2.33;1.30;;;11.10;97.30;;;;;;5129594;27;20592;-69
2023/04/27 11:54:15;;;;;;;1.23;1.20;;;10.90;97.60;;;;;;5129262;27;20205;-70
2023/04/27 11:56:43;;;;;;;2.10;1.23;;;10.70;98.20;;;;;;5125429;27;20313;-70
2023/04/27 11:59:21;;;;;;;2.83;1.17;;;10.70;98.60;;;;;;5103205;28;20213;-70
2023/04/27 12:01:51;;;;;;;6.10;1.70;;;10.70;98.40;;;;;;5088449;28;20677;-70
2023/04/27 12:04:18;;;;;;;1.60;1.20;;;10.80;98.30;;;;;;5088396;28;20305;-70
2023/04/27 12:06:45;;;;;;;1.23;1.10;;;10.80;97.70;;;;;;5088441;28;20210;-70
2023/04/27 12:09:12;;;;;;;1.10;1.10;;;10.80;98.20;;;;;;5088488;28;20210;-70
2023/04/27 12:11:39;;;;;;;2.67;1.20;;;10.80;97.60;;;;;;5088284;28;20321;-69
2023/04/27 12:14:07;;;;;;;4.07;1.13;;;10.90;97.40;;;;;;5088434;28;20817;-70
2023/04/27 12:16:34;;;;;;;1.20;1.10;;;10.90;97.20;;;;;;5088324;28;20232;-70
2023/04/27 12:19:02;;;;;;;1.90;1.20;;;10.90;97.40;;;;;;5087975;28;20209;-70
2023/04/27 12:21:29;;;;;;;1.30;1.10;;;11.00;97.60;;;;;;5087803;28;20203;-70
2023/04/27 12:23:55;;;;;;;1.20;1.10;;;11.10;98.50;;;;;;5104137;28;20241;-70
2023/04/27 12:26:22;;;;;;;4.23;1.43;;;11.30;98.60;;;;;;5108256;28;20651;-70
2023/04/27 12:28:49;;;;;;;1.50;1.23;;;11.30;98.70;;;;;;5108172;27;20214;-70
2023/04/27 12:31:17;;;;;;;3.23;1.57;;;11.40;98.40;;;;;;5108002;28;20947;-70
2023/04/27 12:33:44;;;;;;;1.70;1.30;;;11.40;98.80;;;;;;5107983;28;20210;-70
2023/04/27 12:36:12;;;;;;;3.33;1.37;;;11.60;98.60;;;;;;5107786;28;20288;-70
2023/04/27 12:38:39;;;;;;;1.90;1.00;;;11.50;98.30;;;;;;5107607;28;20317;-71
2023/04/27 12:41:06;;;;;;;2.40;1.60;;;11.60;99.10;;;;;;5107524;27;20263;-70
2023/04/27 12:43:34;;;;;;;1.60;1.50;;;11.80;98.90;;;;;;5107816;28;20244;-72
2023/04/27 12:46:01;;;;;;;4.10;1.67;;;12.10;98.00;;;;;;5103368;28;20677;-71
2023/04/27 12:48:28;;;;;;;3.30;1.40;;;12.30;97.30;;;;;;5087547;28;20307;-71
2023/04/27 12:50:56;;;;;;;2.20;1.40;;;12.20;96.60;;;;;;5087598;28;20298;-71
2023/04/27 12:53:25;;;;;;;2.00;1.20;;;12.40;96.80;;;;;;5087732;28;20227;-71
2023/04/27 12:55:52;;;;;;;5.90;1.37;;;12.50;96.60;;;;;;5087694;28;20736;-71
2023/04/27 12:58:19;;;;;;;1.53;1.17;;;12.40;96.20;;;;;;5087312;28;20241;-71
2023/04/27 13:00:46;;;;;;;1.93;0.93;;;12.60;96.80;;;;;;5089776;28;20298;-72